| time (UTC) | temp F | wind direction | speed MPH | gust MPH | rain 1hr in | rain 24hr in | rain mn in | humidity % | barometer mb |
| 20260902220101 | 100 | 317 | 1.0 | 5.0 | 0.00 | 0.00 | 0.00 | 42 | 1009.2 |
| 20260902214556 | 101 | 344 | 1.0 | 5.0 | 0.00 | 0.00 | 0.00 | 39 | 1009.4 |
| 20260902213053 | 99 | 69 | 3.0 | 8.0 | 0.00 | 0.00 | 0.00 | 39 | 1009.4 |
| 20260902211554 | 101 | 46 | 2.0 | 5.0 | 0.00 | 0.00 | 0.00 | 39 | 1009.7 |
| 20260902210048 | 100 | 111 | 0.0 | 4.0 | 0.00 | 0.00 | 0.00 | 42 | 1009.7 |
| 20260902204610 | 99 | 46 | 2.0 | 8.0 | 0.00 | 0.00 | 0.00 | 43 | 1009.9 |
| 20260902203044 | 99 | 57 | 2.0 | 10.0 | 0.00 | 0.00 | 0.00 | 43 | 1010.1 |
| 20260902201541 | 99 | 89 | 1.0 | 6.0 | 0.00 | 0.00 | 0.00 | 41 | 1010.3 |
| 20260902200041 | 99 | 5 | 2.0 | 8.0 | 0.00 | 0.00 | 0.00 | 42 | 1010.5 |
| 20260902194634 | 99 | 24 | 2.0 | 6.0 | 0.00 | 0.00 | 0.00 | 43 | 1010.8 |
| 20260902193034 | 97 | 303 | 1.0 | 4.0 | 0.00 | 0.00 | 0.00 | 43 | 1011.0 |
| 20260902191529 | 96 | 89 | 1.0 | 8.0 | 0.00 | 0.00 | 0.00 | 46 | 1011.4 |
| 20260902190032 | 98 | 15 | 4.0 | 9.0 | 0.00 | 0.00 | 0.00 | 43 | 1011.5 |
| 20260902184532 | 97 | 45 | 2.0 | 4.0 | 0.00 | 0.00 | 0.00 | 45 | 1011.8 |
| 20260902183037 | 96 | 89 | 1.0 | 8.0 | 0.00 | 0.00 | 0.00 | 47 | 1012.0 |
| 20260902181517 | 95 | 53 | 1.0 | 6.0 | 0.00 | 0.00 | 0.00 | 48 | 1012.3 |
| 20260902180016 | 96 | 5 | 1.0 | 5.0 | 0.00 | 0.00 | 0.00 | 47 | 1012.6 |
| 20260902174518 | 96 | 147 | 2.0 | 5.0 | 0.00 | 0.00 | 0.00 | 47 | 1012.8 |
| 20260902173016 | 95 | 142 | 0.0 | 6.0 | 0.00 | 0.00 | 0.00 | 48 | 1013.1 |
| 20260902171506 | 95 | 253 | 1.0 | 4.0 | 0.00 | 0.00 | 0.00 | 46 | 1013.2 |
| 20260902170004 | 94 | 165 | 0.0 | 3.0 | 0.00 | 0.00 | 0.00 | 48 | 1013.4 |
| 20260902164605 | 93 | 70 | 2.0 | 5.0 | 0.00 | 0.00 | 0.00 | 49 | 1013.5 |
| 20260902163055 | 92 | 155 | 2.0 | 6.0 | 0.00 | 0.00 | 0.00 | 51 | 1013.7 |
| 20260902161555 | 92 | 64 | 1.0 | 6.0 | 0.00 | 0.00 | 0.00 | 53 | 1013.8 |
| 20260902160050 | 92 | 101 | 0.0 | 3.0 | 0.00 | 0.00 | 0.00 | 54 | 1013.9 |
| 20260902154545 | 90 | 130 | 0.0 | 5.0 | 0.00 | 0.00 | 0.00 | 55 | 1013.9 |
| 20260902153053 | 90 | 250 | 1.0 | 4.0 | 0.00 | 0.00 | 0.00 | 57 | 1013.9 |
| 20260902151543 | 89 | 129 | 1.0 | 5.0 | 0.00 | 0.00 | 0.00 | 58 | 1013.8 |
| 20260902150041 | 88 | 81 | 0.0 | 4.0 | 0.00 | 0.00 | 0.00 | 60 | 1013.9 |
| 20260902144540 | 87 | 119 | 1.0 | 4.0 | 0.00 | 0.00 | 0.00 | 62 | 1013.9 |
| 20260902143039 | 87 | 34 | 0.0 | 3.0 | 0.00 | 0.00 | 0.00 | 65 | 1013.9 |
| 20260902141538 | 85 | 98 | 0.0 | 4.0 | 0.00 | 0.00 | 0.00 | 66 | 1013.9 |
| 20260902140038 | 84 | 113 | 0.0 | 3.0 | 0.00 | 0.00 | 0.00 | 69 | 1013.9 |
| 20260902134537 | 83 | 85 | 0.0 | 3.0 | 0.00 | 0.00 | 0.00 | 71 | 1013.9 |
| 20260902133036 | 81 | 68 | 0.0 | 3.0 | 0.00 | 0.00 | 0.00 | 74 | 1013.9 |
| 20260902131535 | 80 | 68 | 0.0 | 2.0 | 0.00 | 0.00 | 0.00 | 75 | 1013.9 |
| 20260902130033 | 79 | 68 | 0.0 | 2.0 | 0.00 | 0.00 | 0.00 | 76 | 1013.6 |
| 20260902124532 | 79 | 67 | 0.0 | 0.0 | 0.00 | 0.00 | 0.00 | 76 | 1013.5 |
| 20260902123031 | 79 | 67 | 0.0 | 0.0 | 0.00 | 0.00 | 0.00 | 76 | 1013.3 |
| 20260902121529 | 79 | 98 | 0.0 | 0.0 | 0.00 | 0.00 | 0.00 | 75 | 1013.1 |
| 20260902120028 | 79 | 98 | 0.0 | 0.0 | 0.00 | 0.00 | 0.00 | 74 | 1013.2 |
| 20260902114526 | 79 | 98 | 0.0 | 0.0 | 0.00 | 0.00 | 0.00 | 73 | 1013.2 |
| 20260902113024 | 80 | 128 | 0.0 | 1.0 | 0.00 | 0.00 | 0.00 | 73 | 1013.2 |
| 20260902111524 | 80 | 143 | 0.0 | 0.0 | 0.00 | 0.00 | 0.00 | 72 | 1013.1 |
| 20260902110036 | 80 | 143 | 0.0 | 0.0 | 0.00 | 0.00 | 0.00 | 72 | 1013.1 |
| 20260902104533 | 80 | 143 | 0.0 | 0.0 | 0.00 | 0.00 | 0.00 | 72 | 1013.1 |
| 20260902103036 | 80 | 143 | 0.0 | 0.0 | 0.00 | 0.00 | 0.00 | 71 | 1013.1 |
| 20260902101520 | 81 | 143 | 0.0 | 0.0 | 0.00 | 0.00 | 0.00 | 71 | 1013.0 |
| 20260902100018 | 81 | 143 | 0.0 | 0.0 | 0.00 | 0.00 | 0.00 | 70 | 1012.9 |
| 20260902094516 | 81 | 143 | 0.0 | 0.0 | 0.00 | 0.00 | 0.00 | 70 | 1013.0 |
| 20260902093014 | 82 | 143 | 0.0 | 2.0 | 0.00 | 0.00 | 0.00 | 68 | 1013.0 |
| 20260902091514 | 82 | 180 | 0.0 | 2.0 | 0.00 | 0.00 | 0.00 | 68 | 1013.1 |
| 20260902090020 | 83 | 180 | 0.0 | 4.0 | 0.00 | 0.00 | 0.00 | 66 | 1013.2 |
| 20260902084509 | 83 | 163 | 1.0 | 6.0 | 0.00 | 0.00 | 0.00 | 66 | 1013.1 |
| 20260902083007 | 83 | 162 | 0.0 | 3.0 | 0.00 | 0.00 | 0.00 | 65 | 1013.1 |
| 20260902081505 | 84 | 169 | 1.0 | 4.0 | 0.00 | 0.00 | 0.00 | 64 | 1013.2 |
| 20260902080005 | 84 | 167 | 1.0 | 5.0 | 0.00 | 0.00 | 0.00 | 63 | 1013.1 |
| 20260902074502 | 84 | 184 | 1.0 | 9.0 | 0.00 | 0.00 | 0.00 | 63 | 1013.2 |
| 20260902073100 | 84 | 216 | 3.0 | 8.0 | 0.00 | 0.00 | 0.00 | 63 | 1013.3 |
| 20260902071559 | 84 | 161 | 1.0 | 8.0 | 0.00 | 0.00 | 0.00 | 63 | 1013.3 |
| 20260902070057 | 85 | 153 | 3.0 | 11.0 | 0.00 | 0.00 | 0.00 | 63 | 1013.3 |
| 20260902064603 | 85 | 175 | 0.0 | 4.0 | 0.00 | 0.00 | 0.00 | 63 | 1013.3 |
| 20260902063106 | 85 | 148 | 2.0 | 10.0 | 0.00 | 0.00 | 0.00 | 63 | 1013.1 |
| 20260902061609 | 86 | 178 | 4.0 | 11.0 | 0.00 | 0.00 | 0.00 | 62 | 1013.0 |
| 20260902060046 | 86 | 180 | 3.0 | 12.0 | 0.00 | 0.00 | 0.00 | 61 | 1012.9 |
| 20260902054542 | 86 | 170 | 1.0 | 7.0 | 0.00 | 0.00 | 0.00 | 61 | 1012.7 |
| 20260902053040 | 87 | 107 | 1.0 | 7.0 | 0.00 | 0.00 | 0.00 | 59 | 1012.6 |
| 20260902051553 | 88 | 122 | 1.0 | 10.0 | 0.00 | 0.00 | 0.00 | 57 | 1012.5 |
| 20260902050033 | 88 | 154 | 1.0 | 7.0 | 0.00 | 0.00 | 0.00 | 56 | 1012.4 |
| 20260902044558 | 88 | 117 | 0.0 | 3.0 | 0.00 | 0.00 | 0.00 | 56 | 1012.3 |
| 20260902043034 | 89 | 137 | 0.0 | 2.0 | 0.00 | 0.00 | 0.00 | 55 | 1012.3 |
| 20260902041534 | 89 | 120 | 1.0 | 4.0 | 0.00 | 0.00 | 0.00 | 54 | 1012.2 |
| 20260902040030 | 89 | 109 | 0.0 | 2.0 | 0.00 | 0.00 | 0.00 | 54 | 1012.1 |
| 20260902034529 | 90 | 134 | 0.0 | 2.0 | 0.00 | 0.00 | 0.00 | 53 | 1012.1 |
| 20260902033031 | 90 | 76 | 0.0 | 4.0 | 0.00 | 0.00 | 0.00 | 52 | 1012.2 |
| 20260902031547 | 91 | 24 | 0.0 | 3.0 | 0.00 | 0.00 | 0.00 | 51 | 1011.9 |
| 20260902030028 | 91 | 149 | 0.0 | 2.0 | 0.00 | 0.00 | 0.00 | 51 | 1011.7 |
| 20260902024527 | 91 | 149 | 0.0 | 3.0 | 0.00 | 0.00 | 0.00 | 50 | 1011.5 |
| 20260902023030 | 92 | 116 | 1.0 | 4.0 | 0.00 | 0.00 | 0.00 | 50 | 1011.3 |
| 20260902021526 | 92 | 111 | 0.0 | 4.0 | 0.00 | 0.00 | 0.00 | 50 | 1011.1 |
| 20260902020026 | 92 | 177 | 0.0 | 3.0 | 0.00 | 0.00 | 0.00 | 49 | 1011.0 |
| 20260902014531 | 93 | 122 | 0.0 | 4.0 | 0.00 | 0.00 | 0.00 | 48 | 1010.8 |
| 20260902013030 | 93 | 63 | 0.0 | 3.0 | 0.00 | 0.00 | 0.00 | 47 | 1010.7 |
| 20260902011529 | 94 | 153 | 0.0 | 4.0 | 0.00 | 0.00 | 0.00 | 46 | 1010.6 |
| 20260902010024 | 95 | 123 | 0.0 | 6.0 | 0.00 | 0.00 | 0.00 | 45 | 1010.4 |
| 20260902004523 | 96 | 191 | 1.0 | 5.0 | 0.00 | 0.00 | 0.00 | 44 | 1010.4 |
| 20260902003021 | 97 | 229 | 1.0 | 8.0 | 0.00 | 0.00 | 0.00 | 43 | 1010.6 |
| 20260902001521 | 99 | 145 | 0.0 | 5.0 | 0.00 | 0.00 | 0.00 | 40 | 1010.6 |
| 20260902000020 | 100 | 134 | 0.0 | 5.0 | 0.00 | 0.00 | 0.00 | 39 | 1010.6 |
| 20260901234518 | 100 | 81 | 0.0 | 5.0 | 0.00 | 0.00 | 0.00 | 39 | 1010.9 |
| 20260901233025 | 100 | 17 | 0.0 | 7.0 | 0.00 | 0.00 | 0.00 | 39 | 1010.9 |
| 20260901231525 | 100 | 97 | 2.0 | 7.0 | 0.00 | 0.00 | 0.00 | 38 | 1010.9 |
| 20260901230020 | 100 | 90 | 2.0 | 9.0 | 0.00 | 0.00 | 0.00 | 38 | 1010.8 |
| 20260901224516 | 102 | 350 | 0.0 | 8.0 | 0.00 | 0.00 | 0.00 | 37 | 1010.8 |
| 20260901223016 | 102 | 227 | 2.0 | 7.0 | 0.00 | 0.00 | 0.00 | 36 | 1010.9 |
| 20260901221513 | 101 | 118 | 0.0 | 7.0 | 0.00 | 0.00 | 0.00 | 37 | 1011.0 |